createdAt,value
2019-01-28T00:00:15.159Z,65.65
2019-01-28T00:01:15.025Z,68.82
2019-01-28T00:02:14.892Z,70.81
2019-01-28T00:03:14.756Z,72.22
2019-01-28T00:04:14.622Z,72.51
2019-01-28T00:05:14.486Z,74.05
2019-01-28T00:06:14.351Z,75.00
2019-01-28T00:07:14.214Z,78.50
2019-01-28T00:08:14.081Z,80.10
2019-01-28T00:09:13.947Z,81.99
2019-01-28T00:10:13.809Z,83.97
2019-01-28T00:11:13.675Z,88.89
2019-01-28T00:12:14.036Z,90.07
2019-01-28T00:13:13.405Z,90.30
2019-01-28T00:14:13.271Z,93.37
2019-01-28T00:15:13.137Z,94.51
2019-01-28T00:16:12.999Z,92.80
2019-01-28T00:17:12.867Z,92.24
2019-01-28T00:18:12.730Z,91.67
2019-01-28T00:19:12.595Z,91.58
2019-01-28T00:20:12.459Z,91.49
2019-01-28T00:21:12.325Z,94.13
2019-01-28T00:22:12.190Z,99.99
2019-01-28T00:23:12.059Z,99.99
2019-01-28T00:24:11.918Z,99.99
2019-01-28T00:25:11.785Z,99.99
2019-01-28T00:26:11.648Z,99.99
2019-01-28T00:27:11.515Z,99.99
2019-01-28T00:28:11.379Z,99.99
2019-01-28T00:29:11.272Z,99.99
2019-01-28T00:30:11.109Z,99.99
2019-01-28T00:31:10.972Z,99.99
2019-01-28T00:32:10.837Z,99.99
2019-01-28T00:33:10.700Z,99.99
2019-01-28T00:34:10.567Z,99.99
2019-01-28T00:35:10.431Z,99.99
2019-01-28T00:36:10.298Z,99.99
2019-01-28T00:37:10.159Z,99.99
2019-01-28T00:38:10.026Z,99.99
2019-01-28T00:39:09.888Z,99.99
2019-01-28T00:40:09.752Z,99.51
2019-01-28T00:41:09.616Z,98.10
2019-01-28T00:42:09.481Z,99.79
2019-01-28T00:43:09.395Z,99.13
2019-01-28T00:44:09.216Z,96.20
2019-01-28T00:45:09.072Z,96.11
2019-01-28T00:46:08.939Z,95.73
2019-01-28T00:47:08.804Z,92.14
2019-01-28T00:48:08.666Z,89.88
2019-01-28T00:49:08.530Z,90.35
2019-01-28T00:50:08.397Z,91.20
2019-01-28T00:51:08.259Z,90.92
2019-01-28T00:52:08.135Z,90.16
2019-01-28T00:53:07.985Z,91.67
2019-01-28T00:54:07.850Z,92.80
2019-01-28T00:55:07.714Z,91.49
2019-01-28T00:56:07.580Z,90.92
2019-01-28T00:57:07.442Z,90.54
2019-01-28T00:58:07.321Z,92.33
2019-01-28T00:59:07.178Z,93.75
2019-01-28T01:00:07.034Z,93.18
2019-01-28T01:01:06.898Z,94.51
2019-01-28T01:02:06.762Z,96.30
2019-01-28T01:03:06.625Z,97.34
2019-01-28T01:04:06.490Z,99.79
2019-01-28T01:05:06.355Z,99.99
2019-01-28T01:06:06.218Z,99.99
2019-01-28T01:07:06.085Z,99.41
2019-01-28T01:08:05.946Z,99.98
2019-01-28T01:09:05.810Z,99.99
2019-01-28T01:10:05.674Z,99.99
2019-01-28T01:11:05.536Z,99.99
2019-01-28T01:12:05.420Z,99.13
2019-01-28T01:13:05.264Z,98.94
2019-01-28T01:14:05.130Z,97.62
2019-01-28T01:15:04.993Z,95.83
2019-01-28T01:16:04.859Z,96.68
2019-01-28T01:17:04.723Z,99.99
2019-01-28T01:18:04.587Z,99.99
2019-01-28T01:19:04.451Z,99.99
2019-01-28T01:20:04.316Z,99.99
2019-01-28T01:21:04.180Z,99.99
2019-01-28T01:22:04.042Z,99.99
2019-01-28T01:23:03.906Z,99.99
2019-01-28T01:24:03.770Z,99.99
2019-01-28T01:25:03.635Z,99.99
2019-01-28T01:26:03.498Z,99.99
2019-01-28T01:27:03.364Z,99.99
2019-01-28T01:28:03.227Z,99.99
2019-01-28T01:29:03.097Z,99.99
2019-01-28T01:30:02.955Z,99.99
2019-01-28T01:31:02.821Z,99.99
2019-01-28T01:32:02.684Z,99.99
2019-01-28T01:33:02.590Z,99.99
2019-01-28T01:34:02.411Z,99.99
2019-01-28T01:35:02.284Z,99.99
2019-01-28T01:36:02.145Z,99.99
2019-01-28T01:37:02.005Z,99.99
2019-01-28T01:38:01.870Z,99.99
2019-01-28T01:39:01.734Z,99.99
2019-01-28T01:40:01.596Z,99.99
2019-01-28T01:41:01.498Z,99.99
2019-01-28T01:42:01.326Z,99.99
2019-01-28T01:43:01.191Z,99.99
2019-01-28T01:44:01.054Z,99.99
2019-01-28T01:45:00.921Z,99.99
2019-01-28T01:46:00.783Z,99.99
2019-01-28T01:47:00.648Z,99.99
2019-01-28T01:48:00.509Z,99.99
2019-01-28T01:49:00.374Z,99.99
2019-01-28T01:50:00.245Z,99.99
2019-01-28T01:51:00.104Z,99.99
2019-01-28T01:51:59.965Z,99.99
2019-01-28T01:52:59.833Z,99.99
2019-01-28T01:53:59.699Z,99.99
2019-01-28T01:54:59.558Z,99.99
2019-01-28T01:55:59.422Z,99.99
2019-01-28T01:56:59.287Z,99.99
2019-01-28T01:57:59.154Z,99.99
2019-01-28T01:58:59.017Z,99.99
2019-01-28T01:59:58.881Z,99.99
2019-01-28T02:00:58.744Z,99.99
2019-01-28T02:01:58.611Z,99.99
2019-01-28T02:02:58.474Z,99.99
2019-01-28T02:03:58.336Z,99.99
2019-01-28T02:04:58.202Z,99.99
2019-01-28T02:05:58.067Z,99.99
2019-01-28T02:06:57.929Z,99.99
2019-01-28T02:07:57.794Z,99.99
2019-01-28T02:08:57.659Z,99.99
2019-01-28T02:09:57.521Z,99.99
2019-01-28T02:10:57.386Z,99.99
2019-01-28T02:11:57.250Z,99.99
2019-01-28T02:12:57.115Z,99.99
2019-01-28T02:13:56.977Z,99.99
2019-01-28T02:14:56.843Z,99.99
2019-01-28T02:15:56.705Z,99.99
2019-01-28T02:16:56.573Z,99.99
2019-01-28T02:17:56.435Z,99.99
2019-01-28T02:18:56.301Z,99.99
2019-01-28T02:19:56.163Z,99.99
2019-01-28T02:20:56.029Z,99.99
2019-01-28T02:21:55.893Z,99.99
2019-01-28T02:22:55.757Z,99.99
2019-01-28T02:23:55.622Z,99.99
2019-01-28T02:24:55.487Z,99.99
2019-01-28T02:25:55.352Z,99.99
2019-01-28T02:26:55.215Z,99.99
2019-01-28T02:27:55.077Z,99.99
2019-01-28T02:28:54.943Z,99.99
2019-01-28T02:29:54.807Z,99.99
2019-01-28T02:30:54.672Z,99.99
2019-01-28T02:31:54.535Z,99.99
2019-01-28T02:32:54.400Z,99.99
2019-01-28T02:33:54.265Z,99.99
2019-01-28T02:34:54.129Z,99.99
2019-01-28T02:35:53.995Z,99.99
2019-01-28T02:36:53.860Z,99.99
2019-01-28T02:37:53.721Z,99.99
2019-01-28T02:38:53.586Z,99.99
2019-01-28T02:39:53.451Z,99.99
2019-01-28T02:40:53.315Z,99.99
2019-01-28T02:41:53.183Z,99.99
2019-01-28T02:42:53.045Z,99.99
2019-01-28T02:43:52.911Z,99.99
2019-01-28T02:44:52.775Z,99.99
2019-01-28T02:45:52.637Z,99.99
2019-01-28T02:46:52.503Z,99.99
2019-01-28T02:47:52.381Z,99.99
2019-01-28T02:48:52.234Z,99.99
2019-01-28T02:49:52.106Z,99.99
2019-01-28T02:50:52.046Z,99.99
2019-01-28T02:51:51.908Z,99.99
2019-01-28T02:52:51.690Z,99.99
2019-01-28T02:53:51.556Z,99.99
2019-01-28T02:54:51.420Z,99.99
2019-01-28T02:55:51.278Z,99.99
2019-01-28T02:56:51.147Z,99.99
2019-01-28T02:57:51.010Z,99.99
2019-01-28T02:58:50.872Z,99.99
2019-01-28T02:59:50.736Z,99.99
2019-01-28T03:00:50.601Z,99.99
2019-01-28T03:01:50.466Z,99.99
2019-01-28T03:02:50.332Z,99.99
2019-01-28T03:03:50.193Z,99.99
2019-01-28T03:04:50.059Z,99.99
2019-01-28T03:05:49.921Z,99.99
2019-01-28T03:06:49.786Z,99.99
2019-01-28T03:07:49.649Z,99.99
2019-01-28T03:08:49.512Z,99.99
2019-01-28T03:09:49.375Z,99.99
2019-01-28T03:10:49.241Z,99.99
2019-01-28T03:11:49.104Z,99.99
2019-01-28T03:12:48.968Z,99.99
2019-01-28T03:13:48.833Z,99.99
2019-01-28T03:14:48.697Z,99.99
2019-01-28T03:15:48.566Z,99.99
2019-01-28T03:16:48.424Z,99.99
2019-01-28T03:17:48.287Z,99.99
2019-01-28T03:18:48.154Z,99.99
2019-01-28T03:19:48.015Z,99.99
2019-01-28T03:20:47.881Z,99.99
2019-01-28T03:21:47.743Z,99.99
2019-01-28T03:22:47.609Z,99.99
2019-01-28T03:23:47.471Z,99.99
2019-01-28T03:24:47.336Z,99.99
2019-01-28T03:25:47.203Z,99.99
2019-01-28T03:26:47.066Z,99.99
2019-01-28T03:27:46.932Z,99.99
2019-01-28T03:28:46.790Z,99.99
2019-01-28T03:29:46.659Z,99.99
2019-01-28T03:30:46.521Z,99.99
2019-01-28T03:31:46.393Z,99.99
2019-01-28T03:32:46.249Z,99.99
2019-01-28T03:33:46.111Z,99.99
2019-01-28T03:34:45.981Z,99.99
2019-01-28T03:35:45.839Z,99.99
2019-01-28T03:36:45.712Z,99.99
2019-01-28T03:37:45.570Z,99.99
2019-01-28T03:38:45.434Z,99.99
2019-01-28T03:39:45.296Z,99.99
2019-01-28T03:40:45.161Z,99.99
2019-01-28T03:41:45.027Z,99.99
2019-01-28T03:42:44.890Z,99.99
2019-01-28T03:43:44.758Z,99.99
2019-01-28T03:44:44.619Z,99.99
2019-01-28T03:45:44.482Z,99.99
2019-01-28T03:46:44.346Z,99.99
2019-01-28T03:47:44.207Z,99.99
2019-01-28T03:48:44.076Z,99.99
2019-01-28T03:49:43.938Z,99.99
2019-01-28T03:50:43.803Z,99.99
2019-01-28T03:51:43.664Z,99.99
2019-01-28T03:52:43.534Z,99.99
2019-01-28T03:53:43.392Z,99.99
2019-01-28T03:54:43.258Z,99.99
2019-01-28T03:55:43.119Z,99.99
2019-01-28T03:56:42.988Z,99.99
2019-01-28T03:57:42.849Z,99.99
2019-01-28T03:58:42.711Z,99.99
2019-01-28T03:59:42.573Z,99.99
2019-01-28T04:00:42.439Z,99.99
2019-01-28T04:01:42.323Z,99.99
2019-01-28T04:02:42.166Z,99.99
2019-01-28T04:03:42.031Z,99.99
2019-01-28T04:04:41.896Z,99.99
2019-01-28T04:05:41.757Z,99.99
2019-01-28T04:06:41.625Z,99.99
2019-01-28T04:07:41.484Z,99.99
2019-01-28T04:08:41.350Z,99.99
2019-01-28T04:09:41.211Z,99.99
2019-01-28T04:10:41.078Z,99.99
2019-01-28T04:11:40.938Z,99.99
2019-01-28T04:12:40.804Z,99.99
2019-01-28T04:13:40.667Z,99.99
2019-01-28T04:14:40.535Z,99.99
2019-01-28T04:15:40.396Z,99.99
2019-01-28T04:16:40.257Z,99.99
2019-01-28T04:17:40.123Z,99.99
2019-01-28T04:18:39.986Z,99.99
2019-01-28T04:19:39.849Z,99.99
2019-01-28T04:20:39.713Z,99.99
2019-01-28T04:21:39.575Z,99.99
2019-01-28T04:22:39.441Z,99.99
2019-01-28T04:23:39.305Z,99.99
2019-01-28T04:24:39.172Z,99.99
2019-01-28T04:25:39.031Z,99.99
2019-01-28T04:26:38.895Z,99.99
2019-01-28T04:27:38.757Z,99.99
2019-01-28T04:28:38.620Z,99.99
2019-01-28T04:29:38.486Z,99.99
2019-01-28T04:30:38.348Z,99.99
2019-01-28T04:31:38.212Z,99.99
2019-01-28T04:32:38.074Z,99.99
2019-01-28T04:33:37.942Z,99.99
2019-01-28T04:34:37.802Z,99.99
2019-01-28T04:35:37.669Z,99.99
2019-01-28T04:36:37.528Z,99.99
2019-01-28T04:37:37.393Z,99.99
2019-01-28T04:38:37.254Z,99.99
2019-01-28T04:39:37.118Z,99.99
2019-01-28T04:40:36.981Z,99.99
2019-01-28T04:41:36.843Z,99.99
2019-01-28T04:42:36.708Z,99.99
2019-01-28T04:43:36.569Z,99.99
2019-01-28T04:44:36.434Z,99.99
2019-01-28T04:45:36.304Z,99.99
2019-01-28T04:46:36.176Z,99.99
2019-01-28T04:47:36.021Z,99.99
2019-01-28T04:48:35.886Z,99.99
2019-01-28T04:49:35.760Z,99.99
2019-01-28T04:50:35.610Z,99.99
2019-01-28T04:51:35.479Z,99.99
2019-01-28T04:52:35.338Z,99.99
2019-01-28T04:53:35.201Z,99.99
2019-01-28T04:54:35.065Z,99.99
2019-01-28T04:55:34.925Z,99.99
2019-01-28T04:56:34.788Z,99.99
2019-01-28T04:57:34.651Z,99.99
2019-01-28T04:58:34.556Z,99.99
2019-01-28T04:59:34.564Z,99.99
2019-01-28T05:00:34.236Z,99.99
2019-01-28T05:01:34.105Z,99.99
2019-01-28T05:02:33.965Z,99.99
2019-01-28T05:03:33.825Z,99.99
2019-01-28T05:04:33.691Z,99.99
2019-01-28T05:05:33.551Z,99.99
2019-01-28T05:06:33.412Z,99.99
2019-01-28T05:07:33.327Z,99.99
2019-01-28T05:08:33.138Z,99.99
2019-01-28T05:09:33.004Z,99.99
2019-01-28T05:10:32.863Z,99.99
2019-01-28T05:11:32.730Z,99.99
2019-01-28T05:12:32.586Z,99.99
2019-01-28T05:13:32.454Z,99.99
2019-01-28T05:14:32.314Z,99.99
2019-01-28T05:15:32.176Z,99.99
2019-01-28T05:16:32.037Z,99.99
2019-01-28T05:17:31.903Z,99.99
2019-01-28T05:18:31.761Z,99.99
2019-01-28T05:19:31.626Z,99.99
2019-01-28T05:20:31.491Z,99.99
2019-01-28T05:21:31.351Z,99.99
2019-01-28T05:22:31.214Z,99.99
2019-01-28T05:23:31.074Z,99.99
2019-01-28T05:24:30.937Z,99.99
2019-01-28T05:25:30.808Z,99.99
2019-01-28T05:26:30.663Z,99.99
2019-01-28T05:27:30.528Z,99.99
2019-01-28T05:28:30.386Z,99.99
2019-01-28T05:29:30.250Z,99.99
2019-01-28T05:30:30.114Z,99.99
2019-01-28T05:31:29.976Z,99.99
2019-01-28T05:32:29.842Z,99.99
2019-01-28T05:33:29.701Z,99.99
2019-01-28T05:34:29.572Z,99.99
2019-01-28T05:35:29.427Z,99.99
2019-01-28T05:36:29.288Z,99.99
2019-01-28T05:37:29.151Z,99.99
2019-01-28T05:38:29.014Z,99.99
2019-01-28T05:39:28.878Z,99.99
2019-01-28T05:40:28.737Z,99.99
2019-01-28T05:41:28.604Z,99.99
2019-01-28T05:42:28.464Z,99.99
2019-01-28T05:43:28.323Z,99.99
2019-01-28T05:44:28.191Z,99.99
2019-01-28T05:45:28.055Z,99.99
2019-01-28T05:46:27.913Z,99.99
2019-01-28T05:47:27.777Z,99.99
2019-01-28T05:48:27.637Z,99.99
2019-01-28T05:49:27.503Z,99.99
2019-01-28T05:50:29.200Z,99.99
2019-01-28T05:51:27.225Z,99.99
2019-01-28T05:52:27.085Z,99.99
2019-01-28T05:53:26.950Z,99.99
2019-01-28T05:54:26.810Z,99.99
2019-01-28T05:55:26.671Z,99.99
2019-01-28T05:56:26.534Z,99.99
2019-01-28T05:57:26.405Z,99.99
2019-01-28T05:58:26.259Z,99.99
2019-01-28T05:59:26.121Z,99.99
2019-01-28T06:00:25.992Z,99.99
2019-01-28T06:01:25.847Z,99.99
2019-01-28T06:02:25.709Z,99.99
2019-01-28T06:03:25.572Z,99.99
2019-01-28T06:04:25.438Z,99.99
2019-01-28T06:05:25.298Z,99.99
2019-01-28T06:06:25.162Z,99.99
2019-01-28T06:07:25.019Z,99.99
2019-01-28T06:08:24.886Z,99.99
2019-01-28T06:09:24.744Z,99.99
2019-01-28T06:10:24.606Z,99.99
2019-01-28T06:11:24.467Z,99.99
2019-01-28T06:12:24.332Z,99.99
2019-01-28T06:13:24.192Z,99.99
2019-01-28T06:14:24.059Z,99.99
2019-01-28T06:15:23.917Z,99.99
2019-01-28T06:16:23.777Z,99.99
2019-01-28T06:17:23.641Z,99.99
2019-01-28T06:18:23.503Z,99.99
2019-01-28T06:19:23.365Z,99.99
2019-01-28T06:20:23.229Z,99.99
2019-01-28T06:21:23.090Z,99.99
2019-01-28T06:22:22.952Z,99.99
2019-01-28T06:23:22.817Z,99.99
2019-01-28T06:24:22.676Z,99.99
2019-01-28T06:25:22.560Z,99.99
2019-01-28T06:26:22.400Z,99.99
2019-01-28T06:27:22.262Z,99.99
2019-01-28T06:28:22.124Z,99.99
2019-01-28T06:29:21.985Z,99.99
2019-01-28T06:30:21.848Z,99.99
2019-01-28T06:31:21.721Z,99.99
2019-01-28T06:32:21.571Z,99.99
2019-01-28T06:33:21.436Z,99.99
2019-01-28T06:34:21.298Z,99.99
2019-01-28T06:35:21.159Z,99.99
2019-01-28T06:36:21.022Z,99.99
2019-01-28T06:37:20.885Z,99.99
2019-01-28T06:38:20.746Z,99.99
2019-01-28T06:39:20.608Z,99.99
2019-01-28T06:40:20.478Z,99.99
2019-01-28T06:41:20.331Z,99.99
2019-01-28T06:42:20.194Z,99.99
2019-01-28T06:43:20.056Z,99.99
2019-01-28T06:44:19.916Z,99.99
2019-01-28T06:45:19.784Z,99.99
2019-01-28T06:46:19.646Z,99.99
2019-01-28T06:47:19.506Z,99.99
2019-01-28T06:48:19.369Z,99.99
2019-01-28T06:49:19.232Z,99.99
2019-01-28T06:50:19.094Z,99.99
2019-01-28T06:51:18.956Z,99.99
2019-01-28T06:52:18.817Z,99.99
2019-01-28T06:53:18.681Z,99.99
2019-01-28T06:54:18.542Z,99.99
2019-01-28T06:55:18.410Z,99.99
2019-01-28T06:56:18.266Z,99.99
2019-01-28T06:57:18.132Z,99.99
2019-01-28T06:58:17.993Z,99.99
2019-01-28T06:59:17.855Z,99.99
2019-01-28T07:00:17.718Z,99.99
2019-01-28T07:01:17.581Z,99.99
2019-01-28T07:02:17.445Z,99.99
2019-01-28T07:03:17.305Z,99.99
2019-01-28T07:04:17.169Z,99.99
2019-01-28T07:05:17.032Z,99.99
2019-01-28T07:06:16.894Z,99.99
2019-01-28T07:07:16.755Z,99.99
2019-01-28T07:08:16.618Z,99.99
2019-01-28T07:09:16.481Z,99.99
2019-01-28T07:10:16.342Z,99.99
2019-01-28T07:11:16.217Z,99.99
2019-01-28T07:12:16.067Z,99.99
2019-01-28T07:13:15.931Z,99.99
2019-01-28T07:14:17.398Z,99.99
2019-01-28T07:15:15.698Z,99.99
2019-01-28T07:16:15.515Z,99.99
2019-01-28T07:17:15.379Z,99.99
2019-01-28T07:18:15.242Z,99.99
2019-01-28T07:19:15.105Z,99.99
2019-01-28T07:20:14.966Z,99.99
2019-01-28T07:21:14.830Z,99.99
2019-01-28T07:22:14.693Z,99.99
2019-01-28T07:23:14.554Z,99.99
2019-01-28T07:24:14.417Z,99.99
2019-01-28T07:25:14.281Z,99.99
2019-01-28T07:26:14.142Z,99.99
2019-01-28T07:27:14.004Z,99.99
2019-01-28T07:28:13.869Z,99.99
2019-01-28T07:29:13.729Z,99.99
2019-01-28T07:30:13.597Z,99.99
2019-01-28T07:31:13.458Z,99.99
2019-01-28T07:32:13.318Z,99.99
2019-01-28T07:33:13.181Z,99.99
2019-01-28T07:34:13.044Z,99.99
2019-01-28T07:35:12.905Z,99.99
2019-01-28T07:36:12.776Z,99.99
2019-01-28T07:37:12.632Z,99.99
2019-01-28T07:38:12.494Z,99.99
2019-01-28T07:39:12.356Z,99.99
2019-01-28T07:40:12.222Z,99.99
2019-01-28T07:41:12.082Z,99.99
2019-01-28T07:42:11.968Z,99.99
2019-01-28T07:43:11.808Z,99.99
2019-01-28T07:44:11.671Z,99.99
2019-01-28T07:45:11.535Z,99.99
2019-01-28T07:46:11.396Z,99.99
2019-01-28T07:47:11.259Z,99.99
2019-01-28T07:48:11.123Z,99.99
2019-01-28T07:49:10.989Z,99.99
2019-01-28T07:50:10.850Z,99.99
2019-01-28T07:51:10.713Z,99.99
2019-01-28T07:52:10.575Z,99.99
2019-01-28T07:53:10.443Z,99.99
2019-01-28T07:54:10.303Z,99.99
2019-01-28T07:55:10.163Z,99.99
2019-01-28T07:56:10.027Z,99.99
2019-01-28T07:57:09.891Z,99.99
2019-01-28T07:58:09.754Z,99.99
2019-01-28T07:59:09.627Z,99.99
2019-01-28T08:00:09.479Z,99.99
2019-01-28T08:01:09.345Z,99.99
2019-01-28T08:02:09.207Z,99.99
2019-01-28T08:03:09.068Z,99.99
2019-01-28T08:04:08.932Z,99.99
2019-01-28T08:05:08.797Z,99.99
2019-01-28T08:06:08.658Z,99.99
2019-01-28T08:07:08.521Z,99.99
2019-01-28T08:08:08.386Z,99.99
2019-01-28T08:09:08.248Z,99.99
2019-01-28T08:10:08.113Z,99.99
2019-01-28T08:11:07.976Z,99.99
2019-01-28T08:12:07.839Z,99.99
2019-01-28T08:13:07.701Z,99.99
2019-01-28T08:14:07.564Z,99.99
2019-01-28T08:15:07.428Z,99.99
2019-01-28T08:16:07.290Z,99.99
2019-01-28T08:17:07.156Z,99.99
2019-01-28T08:18:11.009Z,99.99
2019-01-28T08:19:06.885Z,99.99
2019-01-28T08:20:11.429Z,99.99
2019-01-28T08:21:06.611Z,99.99
2019-01-28T08:22:06.472Z,99.99
2019-01-28T08:23:06.338Z,99.99
2019-01-28T08:24:06.201Z,99.99
2019-01-28T08:25:06.064Z,99.99
2019-01-28T08:26:05.926Z,99.99
2019-01-28T08:27:05.790Z,99.99
2019-01-28T08:28:05.655Z,99.99
2019-01-28T08:29:05.518Z,99.99
2019-01-28T08:30:05.381Z,99.99
2019-01-28T08:31:05.253Z,99.99
2019-01-28T08:32:05.109Z,99.99
2019-01-28T08:33:04.971Z,99.99
2019-01-28T08:34:04.836Z,99.99
2019-01-28T08:35:04.700Z,99.99
2019-01-28T08:36:04.564Z,99.99
2019-01-28T08:37:04.426Z,99.99
2019-01-28T08:38:04.294Z,99.99
2019-01-28T08:39:04.155Z,99.99
2019-01-28T08:40:04.019Z,99.99
2019-01-28T08:41:03.880Z,99.99
2019-01-28T08:42:03.767Z,99.99
2019-01-28T08:43:03.608Z,99.99
2019-01-28T08:44:03.471Z,99.99
2019-01-28T08:45:03.336Z,99.99
2019-01-28T08:46:03.201Z,99.99
2019-01-28T08:47:03.067Z,99.99
2019-01-28T08:48:02.932Z,99.99
2019-01-28T08:49:02.792Z,99.99
2019-01-28T08:50:02.655Z,99.99
2019-01-28T08:51:02.519Z,99.99
2019-01-28T08:52:02.383Z,99.99
2019-01-28T08:53:02.246Z,99.99
2019-01-28T08:54:02.111Z,99.99
2019-01-28T08:55:01.975Z,99.99
2019-01-28T08:56:01.838Z,99.99
2019-01-28T08:57:01.703Z,99.99
2019-01-28T08:58:01.570Z,99.99
2019-01-28T08:59:01.431Z,99.99
2019-01-28T09:00:01.297Z,99.99
2019-01-28T09:01:01.162Z,99.99
2019-01-28T09:02:01.026Z,99.99
2019-01-28T09:03:00.889Z,99.99
2019-01-28T09:04:00.753Z,99.99
2019-01-28T09:05:00.625Z,99.99
2019-01-28T09:06:00.483Z,99.99
2019-01-28T09:07:00.347Z,99.99
2019-01-28T09:08:00.216Z,99.99
2019-01-28T09:09:00.077Z,99.99
2019-01-28T09:09:59.941Z,99.99
2019-01-28T09:10:59.805Z,99.99
2019-01-28T09:11:59.669Z,99.99
2019-01-28T09:12:59.535Z,99.99
2019-01-28T09:13:59.400Z,99.99
2019-01-28T09:14:59.262Z,99.99
2019-01-28T09:15:59.128Z,99.99
2019-01-28T09:16:58.994Z,99.99
2019-01-28T09:17:58.858Z,99.99
2019-01-28T09:18:58.722Z,99.99
2019-01-28T09:19:59.066Z,99.99
2019-01-28T09:20:58.453Z,99.99
2019-01-28T09:21:58.316Z,99.99
2019-01-28T09:22:58.183Z,99.99
2019-01-28T09:23:58.045Z,99.99
2019-01-28T09:24:57.912Z,99.99
2019-01-28T09:25:57.776Z,99.99
2019-01-28T09:26:57.639Z,99.99
2019-01-28T09:27:57.504Z,99.99
2019-01-28T09:28:57.372Z,99.99
2019-01-28T09:29:57.234Z,99.99
2019-01-28T09:30:57.100Z,99.99
2019-01-28T09:31:56.964Z,99.99
2019-01-28T09:32:56.829Z,99.99
2019-01-28T09:33:56.702Z,99.99
2019-01-28T09:34:56.563Z,99.99
2019-01-28T09:35:56.428Z,99.99
2019-01-28T09:36:56.290Z,99.99
2019-01-28T09:37:56.156Z,99.99
2019-01-28T09:38:56.022Z,99.99
2019-01-28T09:39:55.884Z,99.99
2019-01-28T09:40:55.750Z,99.99
2019-01-28T09:41:55.614Z,99.99
2019-01-28T09:42:55.483Z,99.99
2019-01-28T09:43:55.344Z,99.99
2019-01-28T09:44:55.210Z,99.99
2019-01-28T09:45:55.077Z,99.99
2019-01-28T09:46:54.940Z,99.99
2019-01-28T09:47:54.806Z,99.99
2019-01-28T09:48:54.673Z,99.99
2019-01-28T09:49:54.537Z,99.99
2019-01-28T09:50:54.400Z,99.99
2019-01-28T09:51:54.268Z,99.99
2019-01-28T09:52:54.132Z,99.99
2019-01-28T09:53:53.996Z,99.99
2019-01-28T09:54:53.906Z,99.94
2019-01-28T09:55:53.728Z,98.33
2019-01-28T09:56:53.593Z,98.33
2019-01-28T09:57:53.463Z,97.58
2019-01-28T09:58:53.322Z,97.67
2019-01-28T09:59:53.190Z,95.97
2019-01-28T10:00:53.056Z,95.21
2019-01-28T10:01:52.922Z,96.44
2019-01-28T10:02:52.784Z,97.20
2019-01-28T10:03:52.650Z,98.99
2019-01-28T10:04:52.515Z,99.99
2019-01-28T10:05:52.391Z,99.99
2019-01-28T10:06:52.246Z,99.99
2019-01-28T10:07:52.116Z,99.99
2019-01-28T10:08:51.979Z,99.99
2019-01-28T10:09:51.846Z,99.99
2019-01-28T10:10:51.710Z,99.99
2019-01-28T10:11:51.579Z,99.99
2019-01-28T10:12:51.441Z,99.99
2019-01-28T10:13:51.306Z,99.99
2019-01-28T10:14:51.171Z,97.34
2019-01-28T10:15:51.038Z,96.21
2019-01-28T10:16:50.905Z,97.77
2019-01-28T10:17:50.772Z,96.63
2019-01-28T10:18:50.637Z,96.35
2019-01-28T10:19:50.502Z,98.14
2019-01-28T10:20:50.371Z,98.90
2019-01-28T10:21:50.236Z,99.94
2019-01-28T10:22:50.102Z,99.99
2019-01-28T10:23:49.968Z,99.99
2019-01-28T10:24:49.836Z,99.99
2019-01-28T10:25:49.702Z,99.99
2019-01-28T10:26:49.573Z,99.56
2019-01-28T10:27:49.431Z,99.84
2019-01-28T10:28:49.300Z,99.99
2019-01-28T10:29:49.163Z,99.99
2019-01-28T10:30:49.031Z,99.99
2019-01-28T10:31:48.898Z,99.99
2019-01-28T10:32:48.762Z,99.99
2019-01-28T10:33:48.629Z,98.61
2019-01-28T10:34:48.495Z,97.86
2019-01-28T10:35:48.364Z,95.50
2019-01-28T10:36:48.225Z,92.38
2019-01-28T10:37:48.091Z,88.23
2019-01-28T10:38:47.958Z,87.09
2019-01-28T10:39:47.824Z,88.13
2019-01-28T10:40:47.691Z,89.07
2019-01-28T10:41:47.556Z,88.13
2019-01-28T10:42:47.422Z,88.04
2019-01-28T10:43:47.289Z,84.64
2019-01-28T10:44:47.161Z,84.01
2019-01-28T10:45:47.813Z,83.92
2019-01-28T10:46:46.886Z,82.31
2019-01-28T10:47:46.752Z,82.12
2019-01-28T10:48:49.725Z,82.22
2019-01-28T10:49:46.484Z,82.79
2019-01-28T10:50:46.349Z,83.54
2019-01-28T10:51:46.217Z,81.93
2019-01-28T10:52:46.084Z,80.33
2019-01-28T10:53:45.951Z,80.14
2019-01-28T10:54:45.816Z,80.52
2019-01-28T10:55:45.685Z,78.72
2019-01-28T10:56:45.550Z,78.81
2019-01-28T10:57:45.416Z,77.69
2019-01-28T10:58:45.282Z,76.55
2019-01-28T10:59:45.150Z,76.50
2019-01-28T11:00:45.017Z,76.50
2019-01-28T11:01:44.882Z,74.79
2019-01-28T11:02:44.749Z,73.71
2019-01-28T11:03:44.615Z,74.79
2019-01-28T11:04:44.484Z,74.66
2019-01-28T11:05:44.359Z,74.95
2019-01-28T11:06:44.219Z,74.85
2019-01-28T11:07:44.084Z,74.76
2019-01-28T11:08:43.953Z,74.00
2019-01-28T11:09:43.819Z,72.86
2019-01-28T11:10:43.684Z,73.24
2019-01-28T11:11:43.590Z,73.52
2019-01-28T11:12:43.509Z,73.81
2019-01-28T11:13:43.372Z,74.95
2019-01-28T11:14:43.202Z,73.71
2019-01-28T11:15:43.081Z,74.04
2019-01-28T11:16:42.895Z,73.75
2019-01-28T11:17:42.781Z,73.85
2019-01-28T11:18:42.648Z,74.04
2019-01-28T11:19:42.587Z,72.80
2019-01-28T11:20:42.372Z,72.71
2019-01-28T11:21:42.349Z,72.24
2019-01-28T11:22:42.235Z,71.58
2019-01-28T11:23:42.037Z,71.20
2019-01-28T11:24:41.835Z,71.30
2019-01-28T11:25:41.757Z,71.20
2019-01-28T11:26:41.568Z,70.54
2019-01-28T11:27:41.485Z,70.39
2019-01-28T11:28:41.301Z,70.48
2019-01-28T11:29:41.170Z,71.01
2019-01-28T11:30:41.166Z,70.92
2019-01-28T11:31:40.933Z,71.30
2019-01-28T11:32:40.906Z,71.01
2019-01-28T11:33:40.673Z,71.67
2019-01-28T11:34:40.567Z,71.86
2019-01-28T11:35:40.370Z,71.95
2019-01-28T11:36:40.239Z,71.95
2019-01-28T11:37:40.124Z,71.39
2019-01-28T11:38:40.086Z,71.11
2019-01-28T11:39:39.968Z,72.05
2019-01-28T11:40:39.734Z,71.95
2019-01-28T11:41:39.616Z,72.05
2019-01-28T11:42:40.284Z,71.48
2019-01-28T11:43:39.335Z,71.11
2019-01-28T11:44:39.248Z,71.01
2019-01-28T11:45:39.173Z,71.95
2019-01-28T11:46:38.926Z,71.58
2019-01-28T11:47:38.835Z,71.20
2019-01-28T11:48:38.660Z,70.54
2019-01-28T11:49:38.561Z,71.20
2019-01-28T11:50:38.398Z,71.20
2019-01-28T11:51:38.280Z,71.39
2019-01-28T11:52:38.151Z,71.20
2019-01-28T11:53:37.995Z,70.54
2019-01-28T11:54:37.875Z,70.25
2019-01-28T11:55:37.761Z,69.87
2019-01-28T11:56:37.620Z,69.97
2019-01-28T11:57:37.466Z,70.39
2019-01-28T11:58:37.331Z,71.61
2019-01-28T11:59:37.198Z,72.71
2019-01-28T12:00:37.065Z,71.48
2019-01-28T12:01:36.934Z,71.67
2019-01-28T12:02:36.805Z,71.86
2019-01-28T12:03:36.668Z,71.83
2019-01-28T12:04:36.538Z,72.58
2019-01-28T12:05:36.405Z,73.71
2019-01-28T12:06:36.280Z,74.09
2019-01-28T12:07:36.138Z,74.66
2019-01-28T12:08:36.038Z,75.60
2019-01-28T12:09:35.874Z,76.45
2019-01-28T12:10:35.743Z,75.70
2019-01-28T12:11:35.609Z,75.42
2019-01-28T12:12:35.474Z,74.57
2019-01-28T12:13:35.342Z,72.96
2019-01-28T12:14:35.208Z,72.11
2019-01-28T12:15:35.074Z,72.30
2019-01-28T12:16:34.943Z,71.58
2019-01-28T12:17:34.816Z,71.39
2019-01-28T12:18:34.678Z,71.11
2019-01-28T12:19:34.547Z,70.92
2019-01-28T12:20:34.417Z,70.16
2019-01-28T12:21:34.289Z,70.44
2019-01-28T12:22:34.152Z,69.68
2019-01-28T12:23:34.714Z,70.54
2019-01-28T12:24:33.882Z,70.06
2019-01-28T12:25:33.748Z,70.16
2019-01-28T12:26:33.615Z,70.06
2019-01-28T12:27:33.509Z,69.68
2019-01-28T12:28:33.351Z,69.49
2019-01-28T12:29:33.218Z,69.40
2019-01-28T12:30:33.085Z,69.12
2019-01-28T12:31:32.953Z,69.87
2019-01-28T12:32:32.821Z,69.59
2019-01-28T12:33:32.688Z,68.65
2019-01-28T12:34:32.555Z,69.59
2019-01-28T12:35:32.423Z,69.78
2019-01-28T12:36:32.289Z,69.87
2019-01-28T12:37:32.158Z,69.37
2019-01-28T12:38:32.024Z,69.56
2019-01-28T12:39:31.891Z,69.74
2019-01-28T12:40:31.757Z,70.78
2019-01-28T12:41:31.627Z,70.78
2019-01-28T12:42:31.497Z,71.07
2019-01-28T12:43:31.363Z,70.78
2019-01-28T12:44:31.228Z,71.16
2019-01-28T12:45:31.094Z,71.64
2019-01-28T12:46:30.963Z,71.26
2019-01-28T12:47:30.833Z,72.58
2019-01-28T12:48:30.695Z,72.49
2019-01-28T12:49:30.563Z,73.05
2019-01-28T12:50:30.430Z,73.33